METAR Data
IDs: Format: Raw Decoded Include TAF

Data at: 0701 UTC 07 Dec 2022

KLMT 070653Z AUTO 00000KT 10SM CLR M07/M08 A3013 RMK AO2 SLP230 I1001 T10721083
KLMT 070553Z AUTO 00000KT 10SM CLR M06/M08 A3013 RMK AO2 SLP228 I1000 I6000 T10611078 10011 21072 51007
KLMT 070453Z AUTO 05004KT 10SM CLR M06/M07 A3012 RMK AO2 SLP226 T10611072
KLMT 070353Z 01004KT 10SM CLR M05/M07 A3012 RMK AO2 SLP222 LAST T10501067
KLMT 070253Z 00000KT 10SM CLR M04/M06 A3010 RMK AO2 SLP216 T10441061 52006
KLMT 070153Z 00000KT 10SM CLR M03/M06 A3010 RMK AO2 SLP213 T10281056
KLMT 070053Z 07003KT 10SM CLR M02/M06 A3009 RMK AO2 SLP207 T10171056
KLMT 062353Z 31003KT 10SM FEW035 01/M04 A3008 RMK AO2 SLP203 T00061039 10028 21006 53003
KLMT 062300Z 00000KT 10SM SCT022 03/M03 A3007 RMK AO2 T00281033
KLMT 062253Z 00000KT 10SM BKN021 02/M03 A3007 RMK AO2 SLP196 T00221033
KLMT 062153Z 22003KT 10SM BKN022 01/M03 A3007 RMK AO2 SLP198 T00111033
KLMT 062053Z 19004KT 10SM OVC022 01/M03 A3007 RMK AO2 SLP200 T00061033 58004
KLMT 061953Z 16006KT 10SM OVC023 01/M03 A3008 RMK AO2 SLP202 T00061033
KLMT 061853Z 00000KT 10SM OVC023 00/M01 A3009 RMK AO2 SLP206 T00001011
KLMT 061753Z 00000KT 8SM FEW004 OVC022 M01/M01 A3009 RMK AO2 SLP207 T10061011 10000 21017 53015
KLMT 061653Z 00000KT 5SM BR FEW007 OVC026 M01/M01 A3007 RMK AO2 SLP201 T10061006
KLMT 061553Z 00000KT 3SM BR BKN007 OVC026 M01/M01 A3005 RMK AO2 CIG 006V010 SLP194 T10061011
KLMT 061453Z 00000KT 3SM BR OVC003 M01/M02 A3004 RMK AO2 SLP191 T10061017 52007
KLMT 061449Z 00000KT 4SM BR OVC003 M01/M02 A3004 RMK AO2
KLMT 061353Z AUTO 00000KT 8SM OVC002 M01/M02 A3002 RMK AO2 SLP185 T10111022
KLMT 061253Z AUTO 00000KT 9SM OVC004 M01/M03 A3001 RMK AO2 SLP177 T10111028
KLMT 061237Z AUTO 00000KT 10SM BKN004 OVC027 M02/M02 A3000 RMK AO2 T10171022
KLMT 061223Z AUTO 00000KT 10SM FEW004 OVC027 M01/M02 A3000 RMK AO2 T10111017
KLMT 061153Z AUTO 00000KT 10SM OVC027 M02/M02 A3000 RMK AO2 SLP174 70001 T10171022 11011 21017 50003
KLMT 061053Z AUTO 00000KT 10SM FEW004 OVC026 M02/M02 A3001 RMK AO2 SLP177 T10171017
KLMT 061031Z AUTO 00000KT 10SM SCT003 OVC026 M02/M02 A3001 RMK AO2 T10171022
KLMT 060953Z AUTO 05003KT 10SM OVC004 M02/M02 A3001 RMK AO2 SLP175 T10171022
KLMT 060931Z AUTO 03003KT 10SM OVC004 M02/M03 A3000 RMK AO2 T10171028
KLMT 060921Z AUTO 04003KT 10SM BKN005 OVC029 M02/M03 A3000 RMK AO2 T10171028
KLMT 060853Z AUTO 00000KT 10SM SCT003 OVC028 M02/M02 A2999 RMK AO2 SLP171 T10171022 51005
KLMT 060834Z AUTO 00000KT 10SM BKN003 OVC027 M02/M02 A2999 RMK AO2 T10171022
KLMT 060818Z AUTO 18003KT 10SM SCT003 OVC027 M02/M02 A2999 RMK AO2 T10171022
KLMT 060753Z AUTO 00000KT 10SM OVC027 M02/M02 A2999 RMK AO2 SLP171 T10171022 400221044
KLMT 060653Z AUTO 01003KT 10SM FEW003 OVC028 M02/M03 A2999 RMK AO2 SLP170 T10171028
KLMT 060610Z AUTO 00000KT 10SM FEW004 BKN025 OVC032 M02/M02 A2998 RMK AO2 T10171022
KLMT 060603Z AUTO 00000KT 10SM SCT025 OVC032 M02/M02 A2998 RMK AO2 T10171017
KLMT 060553Z AUTO 00000KT 10SM FEW004 BKN027 OVC032 M02/M02 A2998 RMK AO2 SLP167 I6003 T10171017 10011 21044 51015
KLMT 060548Z AUTO 00000KT 10SM FEW004 SCT025 OVC030 M02/M02 A2998 RMK AO2
KLMT 060510Z AUTO 00000KT 10SM BKN017 OVC025 M02/M02 A2997 RMK AO2 T10171017
KLMT 060502Z AUTO 00000KT 2SM BR BKN018 OVC025 M02/M02 A2997 RMK AO2 T10171017
KLMT 060453Z AUTO 00000KT 3/4SM R32/3500VP6000FT BR FEW002 BKN018 OVC025 M02/M02 A2996 RMK AO2 SLP162 I1001 T10171017
KLMT 060417Z AUTO 00000KT 1/2SM R32/2000V2400FT FZFG SCT001 OVC024 M02/M02 A2995 RMK AO2 I1001 T10221022
KLMT 060402Z AUTO 19003KT 1/4SM R32/2000V2200FT FZFG SCT001 OVC024 M02/M02 A2995 RMK AO2 I1001 T10171022
KLMT 060353Z 18004KT 1/4SM R32/1800V2400FT FZFG BKN001 OVC023 M02/M02 A2995 RMK AO2 SLP156 LAST I1001 T10171022
KLMT 060312Z 00000KT 1/4SM R32/1400V1800FT FZFG BKN001 OVC022 M02/M03 A2993 RMK AO2 T10221033
KLMT 060301Z 16004KT 1/4SM R32/1600V6000FT FZFG SCT001 OVC022 M04/M04 A2993 RMK AO2 T10391044
KLMT 060253Z 00000KT 1/4SM R32/1400V6000FT FZFG BKN001 OVC022 M03/M03 A2993 RMK AO2 SLP151 FGBNK S OF RWY14 I1001 I3001 T10331033 53008
KLMT 060200Z 00000KT 5SM BR BKN022 M03/M04 A2992 RMK AO2 FGBNK S OF RWY14 T10281044
KLMT 060153Z 00000KT 1SM R32/3000VP6000FT BR BKN048 M03/M04 A2992 RMK AO2 SLP148 T10331044
KLMT 060150Z 00000KT 1 1/2SM R32/3000VP6000FT BR BKN048 M03/M04 A2992 RMK AO2
KLMT 060053Z 16004KT 10SM OVC048 M01/M02 A2991 RMK AO2 SLP141 T10061022
KLMT 052353Z 20003KT 10SM FEW032 BKN050 01/M01 A2990 RMK AO2 SLP134 T00111006 10022 20000 53006
KLMT 052253Z 16003KT 10SM FEW023 BKN029 02/M01 A2988 RMK AO2 SLP127 T00171006
KLMT 052251Z 16003KT 10SM FEW023 BKN029 02/M01 A2989 RMK AO2
KLMT 052237Z 17003KT 10SM BKN008 01/00 A2988 RMK AO2 T00110000
KLMT 052227Z 18004KT 10SM SCT008 SCT023 BKN029 01/M01 A2988 RMK AO2 T00111006
KLMT 052200Z 21004KT 10SM BKN008 02/00 A2988 RMK AO2 T00170000
KLMT 052153Z 00000KT 10SM BKN013 OVC024 02/M01 A2988 RMK AO2 SLP127 T00171006
KLMT 052053Z 17005KT 10SM BKN013 OVC024 01/00 A2989 RMK AO2 SLP130 T00110000 58003
KLMT 051953Z 18007KT 10SM BKN013 01/M02 A2989 RMK AO2 SLP134 T00061017